createdAt,value
2019-02-18T00:01:03.327Z,97578.80
2019-02-18T00:03:32.917Z,97581.79
2019-02-18T00:06:03.584Z,97585.92
2019-02-18T00:08:33.209Z,97578.13
2019-02-18T00:11:02.810Z,97578.42
2019-02-18T00:13:32.506Z,97573.75
2019-02-18T00:16:02.292Z,97573.62
2019-02-18T00:18:31.894Z,97574.48
2019-02-18T00:21:01.491Z,97571.00
2019-02-18T00:23:31.120Z,97574.30
2019-02-18T00:26:00.744Z,97572.99
2019-02-18T00:28:30.352Z,97577.01
2019-02-18T00:30:59.991Z,97568.86
2019-02-18T00:33:30.260Z,97576.63
2019-02-18T00:35:59.849Z,97574.94
2019-02-18T00:38:29.474Z,97572.03
2019-02-18T00:40:59.112Z,97571.00
2019-02-18T00:43:28.733Z,97567.83
2019-02-18T00:45:58.342Z,97569.06
2019-02-18T00:48:27.963Z,97574.09
2019-02-18T00:50:57.862Z,97576.92
2019-02-18T00:53:27.461Z,97569.33
2019-02-18T00:55:57.089Z,97567.19
2019-02-18T00:58:26.725Z,97574.67
2019-02-18T01:00:57.394Z,97573.38
2019-02-18T01:03:26.998Z,97572.81
2019-02-18T01:05:56.692Z,97575.98
2019-02-18T01:08:26.341Z,97565.19
2019-02-18T01:10:56.009Z,97558.92
2019-02-18T01:13:25.605Z,97566.06
2019-02-18T01:15:55.297Z,97564.34
2019-02-18T01:18:26.567Z,97562.13
2019-02-18T01:20:56.264Z,97565.67
2019-02-18T01:23:25.890Z,97564.05
2019-02-18T01:25:55.491Z,97561.44
2019-02-18T01:28:25.203Z,97549.77
2019-02-18T01:30:54.822Z,97553.08
2019-02-18T01:33:24.421Z,97547.84
2019-02-18T01:35:54.048Z,97542.32
2019-02-18T01:38:23.685Z,97545.80
2019-02-18T01:40:53.315Z,97538.87
2019-02-18T01:43:22.918Z,97536.17
2019-02-18T01:45:53.400Z,97532.52
2019-02-18T01:48:23.100Z,97535.70
2019-02-18T01:50:52.797Z,97529.14
2019-02-18T01:53:22.414Z,97525.38
2019-02-18T01:55:52.061Z,97523.78
2019-02-18T01:58:21.663Z,97520.44
2019-02-18T02:00:51.278Z,97512.98
2019-02-18T02:03:20.874Z,97519.40
2019-02-18T02:05:50.639Z,97516.69
2019-02-18T02:08:20.247Z,97507.61
2019-02-18T02:10:49.876Z,97504.73
2019-02-18T02:13:29.082Z,97497.27
2019-02-18T02:16:00.024Z,97498.02
2019-02-18T02:18:29.617Z,97491.92
2019-02-18T02:20:59.420Z,97493.83
2019-02-18T02:23:29.047Z,97491.67
2019-02-18T02:25:58.645Z,97489.51
2019-02-18T02:28:28.275Z,97482.84
2019-02-18T02:31:00.665Z,97486.19
2019-02-18T02:33:29.201Z,97483.61
2019-02-18T02:35:58.859Z,97489.25
2019-02-18T02:38:28.900Z,97483.81
2019-02-18T02:40:58.525Z,97482.02
2019-02-18T02:43:28.857Z,97483.07
2019-02-18T02:45:58.501Z,97483.58
2019-02-18T02:48:28.091Z,97483.09
2019-02-18T02:50:57.723Z,97484.66
2019-02-18T02:53:27.321Z,97486.55
2019-02-18T02:55:56.926Z,97487.05
2019-02-18T02:58:26.553Z,97483.41
2019-02-18T03:00:56.324Z,97477.35
2019-02-18T03:03:25.960Z,97485.75
2019-02-18T03:05:55.651Z,97478.17
2019-02-18T03:08:25.282Z,97479.73
2019-02-18T03:10:54.876Z,97482.05
2019-02-18T03:13:24.509Z,97477.03
2019-02-18T03:15:54.113Z,97479.85
2019-02-18T03:18:23.745Z,97474.12
2019-02-18T03:20:53.344Z,97482.15
2019-02-18T03:23:23.019Z,97481.85
2019-02-18T03:25:52.738Z,97483.00
2019-02-18T03:28:32.499Z,97475.38
2019-02-18T03:31:09.263Z,97476.50
2019-02-18T03:33:46.781Z,97479.05
2019-02-18T03:36:16.414Z,97478.34
2019-02-18T03:38:46.014Z,97485.53
2019-02-18T03:41:16.283Z,97482.02
2019-02-18T03:43:46.025Z,97479.77
2019-02-18T03:46:15.635Z,97490.42
2019-02-18T03:48:45.278Z,97487.24
2019-02-18T03:51:15.432Z,97485.86
2019-02-18T03:53:45.061Z,97487.53
2019-02-18T03:56:14.691Z,97487.63
2019-02-18T03:58:44.285Z,97483.25
2019-02-18T04:01:14.280Z,97479.75
2019-02-18T04:03:44.010Z,97488.34
2019-02-18T04:06:13.679Z,97488.34
2019-02-18T04:08:43.479Z,97481.15
2019-02-18T04:11:13.091Z,97481.72
2019-02-18T04:13:42.715Z,97477.77
2019-02-18T04:16:12.314Z,97477.86
2019-02-18T04:18:41.942Z,97480.58
2019-02-18T04:21:11.547Z,97476.62
2019-02-18T04:23:41.169Z,97471.27
2019-02-18T04:26:10.780Z,97467.41
2019-02-18T04:28:40.962Z,97471.61
2019-02-18T04:31:10.556Z,97471.40
2019-02-18T04:33:40.189Z,97467.84
2019-02-18T04:36:09.786Z,97469.10
2019-02-18T04:38:39.410Z,97464.78
2019-02-18T04:41:09.006Z,97460.44
2019-02-18T04:43:38.633Z,97456.83
2019-02-18T04:46:08.247Z,97458.55
2019-02-18T04:48:37.878Z,97461.80
2019-02-18T04:51:07.478Z,97458.90
2019-02-18T04:53:37.076Z,97461.75
2019-02-18T04:56:06.725Z,97460.60
2019-02-18T04:58:36.569Z,97456.67
2019-02-18T05:01:06.182Z,97451.86
2019-02-18T05:03:35.797Z,97453.21
2019-02-18T05:06:05.419Z,97455.66
2019-02-18T05:08:35.018Z,97450.62
2019-02-18T05:11:04.649Z,97443.52
2019-02-18T05:13:34.334Z,97446.48
2019-02-18T05:16:03.984Z,97448.00
2019-02-18T05:18:33.568Z,97441.97
2019-02-18T05:21:03.189Z,97443.62
2019-02-18T05:23:32.809Z,97446.86
2019-02-18T05:26:02.687Z,97436.27
2019-02-18T05:28:34.186Z,97441.21
2019-02-18T05:31:03.867Z,97440.34
2019-02-18T05:33:33.481Z,97441.84
2019-02-18T05:36:03.082Z,97445.89
2019-02-18T05:38:32.717Z,97444.06
2019-02-18T05:41:02.340Z,97443.13
2019-02-18T05:43:32.040Z,97447.92
2019-02-18T05:46:01.638Z,97440.53
2019-02-18T05:48:33.938Z,97445.78
2019-02-18T05:51:02.616Z,97440.72
2019-02-18T05:53:32.294Z,97446.97
2019-02-18T05:56:01.928Z,97449.92
2019-02-18T05:58:31.524Z,97446.44
2019-02-18T06:01:01.148Z,97445.38
2019-02-18T06:03:31.108Z,97453.18
2019-02-18T06:06:00.745Z,97450.27
2019-02-18T06:08:30.390Z,97451.98
2019-02-18T06:11:00.018Z,97456.48
2019-02-18T06:13:29.623Z,97457.98
2019-02-18T06:15:59.258Z,97454.13
2019-02-18T06:18:28.861Z,97457.04
2019-02-18T06:20:58.494Z,97458.75
2019-02-18T06:23:28.364Z,97464.73
2019-02-18T06:25:58.260Z,97467.28
2019-02-18T06:28:27.853Z,97467.69
2019-02-18T06:30:57.485Z,97474.68
2019-02-18T06:33:28.385Z,97478.07
2019-02-18T06:35:58.188Z,97476.83
2019-02-18T06:38:27.786Z,97477.72
2019-02-18T06:40:57.483Z,97479.84
2019-02-18T06:43:27.104Z,97477.23
2019-02-18T06:45:58.370Z,97474.66
2019-02-18T06:48:35.073Z,97475.78
2019-02-18T06:51:04.842Z,97483.37
2019-02-18T06:53:34.550Z,97481.16
2019-02-18T06:56:04.139Z,97479.80
2019-02-18T06:58:33.536Z,97482.62
2019-02-18T07:01:07.448Z,97473.09
2019-02-18T07:03:38.714Z,97478.52
2019-02-18T07:06:10.932Z,97483.30
2019-02-18T07:08:56.066Z,97480.55
2019-02-18T07:11:27.054Z,97480.73
2019-02-18T07:13:56.879Z,97475.86
2019-02-18T07:16:26.575Z,97483.89
2019-02-18T07:18:56.954Z,97482.05
2019-02-18T07:21:26.548Z,97480.38
2019-02-18T07:23:56.157Z,97478.52
2019-02-18T07:26:26.027Z,97480.19
2019-02-18T07:28:55.645Z,97477.09
2019-02-18T07:31:25.486Z,97484.12
2019-02-18T07:33:55.107Z,97479.52
2019-02-18T07:36:24.703Z,97477.98
2019-02-18T07:38:54.323Z,97478.66
2019-02-18T07:41:23.920Z,97471.71
2019-02-18T07:43:53.554Z,97478.08
2019-02-18T07:46:23.144Z,97475.11
2019-02-18T07:48:52.776Z,97475.50
2019-02-18T07:51:22.373Z,97473.98
2019-02-18T07:53:52.225Z,97464.86
2019-02-18T07:56:22.098Z,97469.34
2019-02-18T07:58:52.491Z,97462.17
2019-02-18T08:01:22.076Z,97465.66
2019-02-18T08:03:52.173Z,97472.77
2019-02-18T08:06:21.782Z,97466.92
2019-02-18T08:08:52.133Z,97469.09
2019-02-18T08:11:21.751Z,97469.44
2019-02-18T08:13:51.343Z,97462.73
2019-02-18T08:16:21.029Z,97465.66
2019-02-18T08:18:50.646Z,97457.12
2019-02-18T08:21:22.059Z,97453.81
2019-02-18T08:23:59.664Z,97460.97
2019-02-18T08:26:24.019Z,97458.62
2019-02-18T08:28:53.757Z,97458.45
2019-02-18T08:31:23.415Z,97458.81
2019-02-18T08:33:53.771Z,97457.70
2019-02-18T08:36:24.027Z,97449.53
2019-02-18T08:38:53.656Z,97449.84
2019-02-18T08:41:23.280Z,97456.06
2019-02-18T08:43:54.828Z,97453.38
2019-02-18T08:46:24.512Z,97452.61
2019-02-18T08:48:54.205Z,97452.30
2019-02-18T08:51:24.385Z,97450.22
2019-02-18T08:53:54.741Z,97453.73
2019-02-18T08:56:24.735Z,97445.45
2019-02-18T08:58:54.319Z,97442.48
2019-02-18T09:01:24.414Z,97434.33
2019-02-18T09:03:54.253Z,97439.61
2019-02-18T09:06:25.229Z,97440.13
2019-02-18T09:08:54.855Z,97436.92
2019-02-18T09:11:24.476Z,97431.09
2019-02-18T09:13:54.072Z,97436.30
2019-02-18T09:16:23.999Z,97432.48
2019-02-18T09:18:53.614Z,97431.78
2019-02-18T09:21:23.215Z,97424.94
2019-02-18T09:23:54.469Z,97422.88
2019-02-18T09:26:24.067Z,97415.27
2019-02-18T09:28:53.690Z,97419.75
2019-02-18T09:31:24.922Z,97418.00
2019-02-18T09:33:54.512Z,97415.11
2019-02-18T09:36:24.133Z,97414.57
2019-02-18T09:38:53.751Z,97414.92
2019-02-18T09:41:23.594Z,97413.80
2019-02-18T09:43:53.214Z,97418.52
2019-02-18T09:46:22.878Z,97419.22
2019-02-18T09:48:52.499Z,97417.41
2019-02-18T09:51:22.096Z,97415.08
2019-02-18T09:53:51.796Z,97422.98
2019-02-18T09:56:21.420Z,97416.47
2019-02-18T09:58:51.326Z,97414.63
2019-02-18T10:01:21.033Z,97417.95
2019-02-18T10:03:50.633Z,97411.06
2019-02-18T10:06:20.263Z,97410.69
2019-02-18T10:08:50.664Z,97401.08
2019-02-18T10:11:20.265Z,97399.97
2019-02-18T10:13:49.936Z,97395.35
2019-02-18T10:16:19.569Z,97389.68
2019-02-18T10:18:49.249Z,97389.23
2019-02-18T10:21:19.648Z,97389.17
2019-02-18T10:23:49.280Z,97383.11
2019-02-18T10:26:18.876Z,97379.87
2019-02-18T10:28:48.797Z,97378.36
2019-02-18T10:31:18.447Z,97379.88
2019-02-18T10:33:48.070Z,97375.45
2019-02-18T10:36:19.049Z,97375.58
2019-02-18T10:38:48.646Z,97366.84
2019-02-18T10:41:19.331Z,97365.80
2019-02-18T10:43:49.029Z,97361.05
2019-02-18T10:46:18.665Z,97355.97
2019-02-18T10:48:48.271Z,97347.55
2019-02-18T10:51:17.870Z,97347.92
2019-02-18T10:53:47.500Z,97343.34
2019-02-18T10:56:17.126Z,97335.70
2019-02-18T10:58:46.902Z,97332.03
2019-02-18T11:01:16.541Z,97333.78
2019-02-18T11:03:46.376Z,97330.44
2019-02-18T11:06:16.048Z,97325.34
2019-02-18T11:08:45.678Z,97327.17
2019-02-18T11:11:17.237Z,97325.66
2019-02-18T11:13:46.625Z,97320.73
2019-02-18T11:16:16.510Z,97319.54
2019-02-18T11:18:46.140Z,97313.14
2019-02-18T11:21:16.572Z,97310.41
2019-02-18T11:23:46.173Z,97305.30
2019-02-18T11:26:16.027Z,97303.20
2019-02-18T11:28:45.871Z,97297.55
2019-02-18T11:31:15.515Z,97295.97
2019-02-18T11:33:45.393Z,97291.56
2019-02-18T11:36:15.474Z,97282.45
2019-02-18T11:38:45.112Z,97281.02
2019-02-18T11:41:14.711Z,97277.31
2019-02-18T11:43:44.314Z,97279.69
2019-02-18T11:46:13.949Z,97273.54
2019-02-18T11:48:43.613Z,97274.13
2019-02-18T11:51:13.322Z,97267.61
2019-02-18T11:53:43.186Z,97259.45
2019-02-18T11:56:12.790Z,97262.23
2019-02-18T11:58:42.421Z,97252.60
2019-02-18T12:01:12.217Z,97252.41
2019-02-18T12:03:41.849Z,97251.95
2019-02-18T12:06:11.659Z,97250.41
2019-02-18T12:08:41.258Z,97245.86
2019-02-18T12:11:15.218Z,97245.30
2019-02-18T12:13:45.399Z,97230.34
2019-02-18T12:16:15.001Z,97232.00
2019-02-18T12:18:46.515Z,97233.70
2019-02-18T12:21:16.114Z,97233.35
2019-02-18T12:23:46.286Z,97226.45
2019-02-18T12:26:15.904Z,97218.39
2019-02-18T12:28:45.504Z,97214.72
2019-02-18T12:31:15.134Z,97208.45
2019-02-18T12:33:44.815Z,97209.34
2019-02-18T12:36:14.443Z,97203.23
2019-02-18T12:38:44.043Z,97202.08
2019-02-18T12:41:13.672Z,97200.12
2019-02-18T12:43:44.407Z,97193.34
2019-02-18T12:46:16.044Z,97189.43
2019-02-18T12:48:45.355Z,97186.81
2019-02-18T12:51:15.299Z,97178.45
2019-02-18T12:53:46.288Z,97180.80
2019-02-18T12:56:17.019Z,97172.09
2019-02-18T12:58:54.468Z,97165.56
2019-02-18T13:01:18.273Z,97161.69
2019-02-18T13:03:48.377Z,97161.56
2019-02-18T13:06:17.977Z,97155.09
2019-02-18T13:08:48.177Z,97148.53
2019-02-18T13:11:17.777Z,97141.30
2019-02-18T13:13:47.401Z,97147.02
2019-02-18T13:16:17.108Z,97149.76
2019-02-18T13:18:46.734Z,97140.25
2019-02-18T13:21:17.689Z,97137.22
2019-02-18T13:23:47.386Z,97138.86
2019-02-18T13:26:17.081Z,97142.52
2019-02-18T13:28:46.687Z,97136.75
2019-02-18T13:31:16.658Z,97140.48
2019-02-18T13:33:46.265Z,97137.78
2019-02-18T13:36:16.393Z,97127.39
2019-02-18T13:38:46.094Z,97127.59
2019-02-18T13:41:15.694Z,97127.47
2019-02-18T13:43:45.322Z,97128.54
2019-02-18T13:46:15.171Z,97126.25
2019-02-18T13:48:44.805Z,97129.50
2019-02-18T13:51:14.637Z,97132.53
2019-02-18T13:53:44.278Z,97128.01
2019-02-18T13:56:14.070Z,97128.01
2019-02-18T13:58:43.675Z,97126.63
2019-02-18T14:01:13.374Z,97128.50
2019-02-18T14:03:42.973Z,97127.78
2019-02-18T14:06:12.679Z,97130.43
2019-02-18T14:08:43.097Z,97127.05
2019-02-18T14:11:12.702Z,97136.45
2019-02-18T14:13:42.402Z,97131.66
2019-02-18T14:16:12.101Z,97130.31
2019-02-18T14:18:41.814Z,97128.09
2019-02-18T14:21:11.881Z,97127.64
2019-02-18T14:23:41.486Z,97127.52
2019-02-18T14:26:12.188Z,97133.03
2019-02-18T14:28:43.608Z,97133.80
2019-02-18T14:31:14.000Z,97133.61
2019-02-18T14:33:43.603Z,97126.59
2019-02-18T14:36:13.301Z,97131.61
2019-02-18T14:38:43.095Z,97121.03
2019-02-18T14:41:12.834Z,97126.82
2019-02-18T14:43:42.434Z,97128.88
2019-02-18T14:46:12.070Z,97126.02
2019-02-18T14:48:41.676Z,97128.45
2019-02-18T14:51:11.421Z,97124.08
2019-02-18T14:53:41.049Z,97125.54
2019-02-18T14:56:11.053Z,97123.09
2019-02-18T14:58:40.741Z,97115.84
2019-02-18T15:01:10.786Z,97126.89
2019-02-18T15:03:40.422Z,97117.03
2019-02-18T15:06:10.185Z,97119.41
2019-02-18T15:08:39.878Z,97120.89
2019-02-18T15:11:09.964Z,97118.47
2019-02-18T15:13:39.657Z,97120.46
2019-02-18T15:16:09.354Z,97118.02
2019-02-18T15:18:38.963Z,97118.50
2019-02-18T15:21:08.663Z,97119.77
2019-02-18T15:23:38.359Z,97116.94
2019-02-18T15:26:08.308Z,97107.55
2019-02-18T15:28:37.972Z,97110.53
2019-02-18T15:31:07.813Z,97110.10
2019-02-18T15:33:37.409Z,97108.88
2019-02-18T15:36:07.250Z,97112.85
2019-02-18T15:38:36.916Z,97107.18
2019-02-18T15:41:06.684Z,97107.43
2019-02-18T15:43:36.283Z,97101.41
2019-02-18T15:46:06.123Z,97100.79
2019-02-18T15:48:36.447Z,97103.84
2019-02-18T15:51:06.350Z,97101.92
2019-02-18T15:53:36.324Z,97102.58
2019-02-18T15:56:06.080Z,97108.34
2019-02-18T15:58:35.684Z,97105.41
2019-02-18T16:01:06.552Z,97104.97
2019-02-18T16:03:36.177Z,97113.09
2019-02-18T16:06:05.810Z,97105.06
2019-02-18T16:08:35.695Z,97108.07
2019-02-18T16:11:05.401Z,97106.50
2019-02-18T16:13:35.002Z,97107.84
2019-02-18T16:16:04.774Z,97109.73
2019-02-18T16:18:34.377Z,97110.39
2019-02-18T16:21:04.141Z,97108.36
2019-02-18T16:23:33.922Z,97112.83
2019-02-18T16:26:03.557Z,97113.47
2019-02-18T16:28:33.160Z,97118.57
2019-02-18T16:31:02.794Z,97115.27
2019-02-18T16:33:32.410Z,97115.64
2019-02-18T16:36:02.025Z,97111.00
2019-02-18T16:38:31.640Z,97122.02
2019-02-18T16:41:01.261Z,97119.67
2019-02-18T16:43:31.109Z,97120.68
2019-02-18T16:46:00.727Z,97122.81
2019-02-18T16:48:30.639Z,97127.29
2019-02-18T16:51:00.515Z,97131.77
2019-02-18T16:53:30.110Z,97130.08
2019-02-18T16:55:59.735Z,97128.72
2019-02-18T16:58:29.323Z,97128.69
2019-02-18T17:00:59.258Z,97126.16
2019-02-18T17:03:28.848Z,97132.02
2019-02-18T17:05:58.654Z,97125.98
2019-02-18T17:08:28.250Z,97136.43
2019-02-18T17:10:57.873Z,97135.36
2019-02-18T17:13:27.503Z,97137.20
2019-02-18T17:15:57.092Z,97141.99
2019-02-18T17:18:26.718Z,97138.71
2019-02-18T17:20:56.458Z,97134.22
2019-02-18T17:23:26.081Z,97140.13
2019-02-18T17:25:55.675Z,97147.34
2019-02-18T17:28:25.309Z,97146.95
2019-02-18T17:30:54.900Z,97150.00
2019-02-18T17:33:24.596Z,97151.37
2019-02-18T17:35:54.261Z,97153.83
2019-02-18T17:38:23.880Z,97153.77
2019-02-18T17:40:53.474Z,97159.88
2019-02-18T17:43:23.096Z,97154.86
2019-02-18T17:45:52.999Z,97157.18
2019-02-18T17:48:22.593Z,97156.66
2019-02-18T17:50:52.217Z,97156.83
2019-02-18T17:53:21.812Z,97155.35
2019-02-18T17:55:51.440Z,97159.23
2019-02-18T17:58:21.060Z,97159.92
2019-02-18T18:00:52.300Z,97163.11
2019-02-18T18:03:22.555Z,97163.39
2019-02-18T18:05:52.185Z,97166.06
2019-02-18T18:08:21.959Z,97170.98
2019-02-18T18:10:51.812Z,97162.23
2019-02-18T18:13:25.191Z,97160.62
2019-02-18T18:15:52.858Z,97162.66
2019-02-18T18:18:22.727Z,97163.32
2019-02-18T18:20:52.606Z,97168.45
2019-02-18T18:23:22.226Z,97165.47
2019-02-18T18:25:51.822Z,97159.38
2019-02-18T18:28:21.444Z,97157.72
2019-02-18T18:30:51.073Z,97154.11
2019-02-18T18:33:20.883Z,97158.91
2019-02-18T18:35:50.546Z,97152.59
2019-02-18T18:38:20.140Z,97156.28
2019-02-18T18:40:49.766Z,97152.05
2019-02-18T18:43:19.452Z,97150.30
2019-02-18T18:45:49.046Z,97152.41
2019-02-18T18:48:18.673Z,97147.44
2019-02-18T18:50:48.267Z,97146.53
2019-02-18T18:53:17.895Z,97144.66
2019-02-18T18:55:47.518Z,97147.12
2019-02-18T18:58:17.114Z,97148.72
2019-02-18T19:00:47.118Z,97148.61
2019-02-18T19:03:16.736Z,97145.05
2019-02-18T19:05:46.355Z,97153.83
2019-02-18T19:08:16.206Z,97148.44
2019-02-18T19:10:46.391Z,97147.23
2019-02-18T19:13:16.015Z,97150.05
2019-02-18T19:15:49.664Z,97147.48
2019-02-18T19:18:16.980Z,97150.89
2019-02-18T19:20:46.639Z,97142.73
2019-02-18T19:23:16.259Z,97144.64
2019-02-18T19:25:45.883Z,97152.48
2019-02-18T19:28:15.753Z,97148.73
2019-02-18T19:30:45.349Z,97153.31
2019-02-18T19:33:32.920Z,97147.53
2019-02-18T19:36:02.515Z,97150.52
2019-02-18T19:38:32.418Z,97149.09
2019-02-18T19:41:02.017Z,97149.27
2019-02-18T19:43:31.641Z,97146.22
2019-02-18T19:46:01.270Z,97146.69
2019-02-18T19:48:30.918Z,97153.09
2019-02-18T19:51:00.512Z,97158.40
2019-02-18T19:53:30.106Z,97152.31
2019-02-18T19:55:59.724Z,97152.80
2019-02-18T19:58:29.388Z,97150.33
2019-02-18T20:00:59.011Z,97149.72
2019-02-18T20:03:28.632Z,97150.67
2019-02-18T20:05:58.226Z,97152.23
2019-02-18T20:08:27.847Z,97148.77
2019-02-18T20:10:57.443Z,97149.47
2019-02-18T20:13:27.066Z,97143.48
2019-02-18T20:15:56.661Z,97144.08
2019-02-18T20:18:27.455Z,97145.52
2019-02-18T20:20:57.318Z,97141.21
2019-02-18T20:23:26.948Z,97138.11
2019-02-18T20:25:56.832Z,97142.77
2019-02-18T20:28:26.485Z,97134.65
2019-02-18T20:30:56.111Z,97135.36
2019-02-18T20:33:25.722Z,97137.03
2019-02-18T20:35:55.339Z,97132.98
2019-02-18T20:38:25.020Z,97129.36
2019-02-18T20:40:54.934Z,97130.68
2019-02-18T20:43:24.537Z,97133.81
2019-02-18T20:45:54.158Z,97133.57
2019-02-18T20:48:25.687Z,97126.03
2019-02-18T20:50:55.288Z,97131.73
2019-02-18T20:53:24.889Z,97128.13
2019-02-18T20:55:54.511Z,97127.53
2019-02-18T20:58:24.173Z,97125.63
2019-02-18T21:00:55.668Z,97127.90
2019-02-18T21:03:25.291Z,97123.75
2019-02-18T21:05:54.887Z,97117.12
2019-02-18T21:08:24.811Z,97120.56
2019-02-18T21:10:54.408Z,97114.90
2019-02-18T21:13:24.035Z,97121.41
2019-02-18T21:15:53.940Z,97110.43
2019-02-18T21:18:23.606Z,97112.19
2019-02-18T21:20:53.215Z,97108.19
2019-02-18T21:23:22.835Z,97098.74
2019-02-18T21:25:52.478Z,97101.12
2019-02-18T21:28:22.069Z,97102.83
2019-02-18T21:30:51.939Z,97098.64
2019-02-18T21:33:21.577Z,97098.47
2019-02-18T21:35:51.167Z,97103.58
2019-02-18T21:38:20.802Z,97096.63
2019-02-18T21:40:50.520Z,97093.00
2019-02-18T21:43:20.114Z,97086.17
2019-02-18T21:45:49.901Z,97088.45
2019-02-18T21:48:19.495Z,97088.67
2019-02-18T21:50:49.782Z,97087.92
2019-02-18T21:53:19.474Z,97083.98
2019-02-18T21:55:49.327Z,97090.77
2019-02-18T21:58:19.796Z,97079.47
2019-02-18T22:00:49.406Z,97079.72
2019-02-18T22:03:18.995Z,97079.05
2019-02-18T22:05:48.611Z,97076.98
2019-02-18T22:08:18.202Z,97080.43
2019-02-18T22:10:47.888Z,97076.41
2019-02-18T22:13:17.784Z,97072.21
2019-02-18T22:15:47.412Z,97074.08
2019-02-18T22:18:17.604Z,97072.98
2019-02-18T22:20:47.194Z,97072.22
2019-02-18T22:23:16.813Z,97080.61
2019-02-18T22:25:46.409Z,97065.02
2019-02-18T22:28:16.028Z,97063.86
2019-02-18T22:30:46.314Z,97067.30
2019-02-18T22:33:15.922Z,97070.88
2019-02-18T22:35:45.553Z,97068.33
2019-02-18T22:38:15.140Z,97066.59
2019-02-18T22:40:44.753Z,97066.55
2019-02-18T22:43:14.341Z,97065.63
2019-02-18T22:45:43.957Z,97067.69
2019-02-18T22:48:13.576Z,97066.80
2019-02-18T22:50:43.203Z,97066.59
2019-02-18T22:53:12.797Z,97063.28
2019-02-18T22:55:42.867Z,97058.63
2019-02-18T22:58:12.497Z,97051.72
2019-02-18T23:00:56.965Z,97045.11
2019-02-18T23:03:26.868Z,97044.70
2019-02-18T23:05:56.551Z,97047.83
2019-02-18T23:08:26.274Z,97037.08
2019-02-18T23:10:56.029Z,97041.13
2019-02-18T23:13:25.619Z,97036.69
2019-02-18T23:15:56.508Z,97040.69
2019-02-18T23:18:26.183Z,97038.33
2019-02-18T23:20:55.778Z,97030.34
2019-02-18T23:23:25.402Z,97027.66
2019-02-18T23:25:55.039Z,97028.08
2019-02-18T23:28:24.642Z,97028.97
2019-02-18T23:30:54.237Z,97023.61
2019-02-18T23:33:23.858Z,97021.24
2019-02-18T23:35:53.457Z,97021.39
2019-02-18T23:38:23.074Z,97025.18
2019-02-18T23:40:52.663Z,97019.93
2019-02-18T23:43:22.264Z,97020.69
2019-02-18T23:45:51.890Z,97023.14
2019-02-18T23:48:21.489Z,97020.21
2019-02-18T23:50:51.125Z,97014.47
2019-02-18T23:53:20.797Z,97011.37
2019-02-18T23:55:50.420Z,97011.27
2019-02-18T23:58:20.018Z,97008.39
